createdAt,value
2019-05-30T00:00:12.543Z,488.46
2019-05-30T00:01:00.681Z,489.17
2019-05-30T00:02:00.471Z,489.94
2019-05-30T00:03:00.271Z,491.21
2019-05-30T00:04:00.362Z,492.16
2019-05-30T00:05:00.316Z,489.20
2019-05-30T00:06:00.547Z,490.88
2019-05-30T00:07:00.540Z,491.48
2019-05-30T00:08:00.338Z,493.86
2019-05-30T00:09:00.512Z,491.10
2019-05-30T00:10:00.575Z,493.89
2019-05-30T00:11:00.612Z,489.66
2019-05-30T00:12:00.813Z,491.33
2019-05-30T00:13:00.642Z,490.51
2019-05-30T00:14:00.683Z,491.98
2019-05-30T00:15:00.569Z,492.26
2019-05-30T00:16:00.713Z,490.71
2019-05-30T00:17:00.830Z,488.79
2019-05-30T00:18:00.772Z,488.53
2019-05-30T00:19:00.787Z,488.46
2019-05-30T00:20:00.684Z,487.36
2019-05-30T00:21:00.605Z,487.75
2019-05-30T00:22:00.742Z,486.60
2019-05-30T00:22:59.432Z,487.04
2019-05-30T00:23:59.971Z,486.64
2019-05-30T00:25:00.060Z,487.54
2019-05-30T00:25:59.385Z,487.65
2019-05-30T00:27:00.276Z,489.92
2019-05-30T00:27:59.400Z,487.92
2019-05-30T00:29:00.290Z,490.56
2019-05-30T00:29:59.346Z,489.38
2019-05-30T00:31:00.384Z,488.89
2019-05-30T00:31:59.431Z,490.19
2019-05-30T00:33:00.594Z,490.00
2019-05-30T00:33:59.571Z,488.48
2019-05-30T00:34:59.668Z,490.87
2019-05-30T00:35:59.862Z,491.33
2019-05-30T00:36:59.854Z,487.84
2019-05-30T00:37:59.710Z,491.33
2019-05-30T00:38:59.761Z,488.60
2019-05-30T00:39:59.860Z,487.63
2019-05-30T00:40:59.974Z,485.11
2019-05-30T00:41:59.984Z,486.20
2019-05-30T00:43:00.023Z,485.90
2019-05-30T00:43:59.943Z,487.96
2019-05-30T00:44:59.956Z,487.78
2019-05-30T00:46:00.017Z,486.51
2019-05-30T00:47:00.499Z,486.35
2019-05-30T00:48:00.127Z,488.34
2019-05-30T00:49:00.180Z,486.58
2019-05-30T00:50:00.196Z,487.77
2019-05-30T00:51:00.210Z,489.89
2019-05-30T00:52:00.440Z,489.88
2019-05-30T00:52:59.092Z,488.34
2019-05-30T00:53:59.098Z,491.33
2019-05-30T00:54:59.066Z,487.87
2019-05-30T00:56:01.537Z,488.23
2019-05-30T00:56:59.043Z,488.76
2019-05-30T00:57:59.059Z,487.90
2019-05-30T00:58:59.029Z,488.12
2019-05-30T00:59:59.034Z,486.79
2019-05-30T01:01:01.030Z,488.64
2019-05-30T01:01:58.983Z,485.77
2019-05-30T01:02:59.863Z,486.50
2019-05-30T01:03:58.969Z,489.10
2019-05-30T01:04:58.963Z,483.40
2019-05-30T01:05:58.947Z,487.71
2019-05-30T01:06:59.110Z,487.85
2019-05-30T01:07:58.933Z,486.14
2019-05-30T01:08:59.100Z,489.30
2019-05-30T01:09:59.145Z,491.04
2019-05-30T01:10:59.013Z,489.43
2019-05-30T01:11:59.105Z,487.92
2019-05-30T01:12:59.916Z,484.81
2019-05-30T01:13:59.023Z,487.44
2019-05-30T01:14:58.936Z,488.97
2019-05-30T01:15:58.996Z,489.14
2019-05-30T01:16:59.043Z,488.26
2019-05-30T01:17:59.119Z,491.60
2019-05-30T01:18:59.098Z,488.38
2019-05-30T01:19:59.103Z,489.90
2019-05-30T01:20:59.142Z,489.62
2019-05-30T01:21:59.127Z,489.36
2019-05-30T01:22:59.177Z,488.93
2019-05-30T01:23:59.199Z,486.98
2019-05-30T01:24:59.073Z,489.48
2019-05-30T01:25:59.351Z,491.64
2019-05-30T01:26:59.219Z,492.54
2019-05-30T01:27:59.471Z,493.24
2019-05-30T01:28:59.317Z,494.64
2019-05-30T01:29:59.412Z,495.31
2019-05-30T01:31:02.988Z,493.74
2019-05-30T01:31:59.658Z,496.70
2019-05-30T01:32:59.650Z,494.55
2019-05-30T01:33:59.495Z,494.98
2019-05-30T01:34:59.753Z,494.15
2019-05-30T01:35:59.648Z,493.02
2019-05-30T01:36:59.846Z,495.37
2019-05-30T01:37:59.684Z,494.99
2019-05-30T01:38:59.613Z,494.04
2019-05-30T01:39:59.699Z,492.76
2019-05-30T01:40:59.616Z,492.97
2019-05-30T01:41:59.669Z,492.90
2019-05-30T01:42:59.823Z,490.07
2019-05-30T01:43:59.750Z,490.47
2019-05-30T01:44:58.502Z,491.19
2019-05-30T01:45:58.502Z,491.59
2019-05-30T01:46:58.486Z,490.61
2019-05-30T01:47:58.498Z,491.67
2019-05-30T01:48:58.462Z,490.36
2019-05-30T01:49:58.449Z,489.50
2019-05-30T01:51:00.314Z,490.36
2019-05-30T01:51:58.573Z,492.22
2019-05-30T01:52:58.540Z,491.00
2019-05-30T01:53:58.408Z,491.85
2019-05-30T01:54:58.580Z,487.96
2019-05-30T01:55:58.576Z,488.41
2019-05-30T01:56:58.497Z,489.91
2019-05-30T01:57:58.718Z,488.17
2019-05-30T01:58:58.688Z,489.03
2019-05-30T01:59:58.663Z,486.55
2019-05-30T02:00:58.796Z,490.11
2019-05-30T02:01:58.907Z,490.31
2019-05-30T02:02:58.844Z,488.80
2019-05-30T02:03:59.072Z,490.49
2019-05-30T02:04:58.843Z,489.46
2019-05-30T02:05:58.919Z,490.84
2019-05-30T02:06:59.212Z,488.56
2019-05-30T02:07:58.996Z,488.43
2019-05-30T02:08:59.130Z,489.14
2019-05-30T02:09:59.144Z,489.13
2019-05-30T02:10:59.195Z,489.01
2019-05-30T02:11:59.301Z,490.10
2019-05-30T02:12:59.294Z,492.35
2019-05-30T02:13:59.461Z,489.81
2019-05-30T02:14:59.324Z,493.24
2019-05-30T02:15:59.490Z,492.64
2019-05-30T02:16:59.505Z,492.78
2019-05-30T02:17:59.426Z,492.24
2019-05-30T02:18:59.467Z,492.83
2019-05-30T02:19:58.114Z,494.30
2019-05-30T02:20:58.107Z,493.24
2019-05-30T02:21:58.095Z,495.14
2019-05-30T02:22:58.143Z,494.49
2019-05-30T02:23:58.075Z,492.65
2019-05-30T02:24:58.087Z,493.78
2019-05-30T02:25:58.053Z,495.01
2019-05-30T02:26:58.041Z,493.72
2019-05-30T02:27:58.054Z,494.03
2019-05-30T02:28:58.030Z,492.24
2019-05-30T02:29:58.003Z,494.22
2019-05-30T02:30:58.002Z,492.35
2019-05-30T02:31:57.988Z,493.18
2019-05-30T02:32:57.980Z,492.25
2019-05-30T02:33:57.985Z,492.37
2019-05-30T02:34:57.965Z,493.57
2019-05-30T02:35:57.950Z,492.22
2019-05-30T02:36:57.934Z,491.54
2019-05-30T02:37:57.928Z,492.55
2019-05-30T02:38:57.924Z,492.65
2019-05-30T02:40:01.009Z,492.50
2019-05-30T02:40:58.898Z,492.71
2019-05-30T02:41:57.884Z,492.82
2019-05-30T02:42:57.860Z,493.33
2019-05-30T02:43:57.876Z,493.68
2019-05-30T02:44:57.861Z,493.74
2019-05-30T02:45:57.851Z,491.00
2019-05-30T02:46:57.828Z,495.60
2019-05-30T02:47:58.362Z,491.36
2019-05-30T02:48:59.614Z,493.00
2019-05-30T02:49:58.391Z,492.74
2019-05-30T02:50:57.807Z,494.20
2019-05-30T02:51:57.814Z,492.51
2019-05-30T02:52:57.783Z,493.99
2019-05-30T02:53:57.892Z,493.10
2019-05-30T02:54:57.724Z,492.74
2019-05-30T02:55:57.726Z,491.35
2019-05-30T02:56:57.714Z,493.91
2019-05-30T02:57:57.686Z,493.46
2019-05-30T02:58:57.718Z,493.14
2019-05-30T02:59:57.679Z,492.25
2019-05-30T03:00:57.684Z,489.97
2019-05-30T03:02:01.829Z,491.47
2019-05-30T03:02:58.641Z,492.53
2019-05-30T03:03:57.651Z,492.59
2019-05-30T03:04:57.641Z,492.85
2019-05-30T03:05:57.616Z,490.00
2019-05-30T03:06:57.610Z,494.18
2019-05-30T03:07:57.600Z,492.63
2019-05-30T03:08:57.585Z,492.67
2019-05-30T03:09:57.560Z,491.90
2019-05-30T03:10:57.550Z,492.24
2019-05-30T03:11:57.542Z,492.13
2019-05-30T03:12:57.551Z,491.07
2019-05-30T03:13:57.538Z,491.69
2019-05-30T03:14:57.518Z,492.21
2019-05-30T03:15:57.498Z,491.02
2019-05-30T03:16:57.492Z,490.74
2019-05-30T03:17:57.480Z,491.35
2019-05-30T03:18:57.490Z,488.93
2019-05-30T03:19:57.470Z,491.88
2019-05-30T03:20:57.449Z,493.41
2019-05-30T03:21:57.432Z,494.99
2019-05-30T03:22:57.417Z,494.58
2019-05-30T03:23:57.436Z,492.48
2019-05-30T03:24:57.417Z,493.72
2019-05-30T03:25:57.390Z,493.70
2019-05-30T03:26:57.381Z,492.82
2019-05-30T03:27:57.372Z,493.09
2019-05-30T03:28:57.371Z,492.38
2019-05-30T03:29:57.352Z,493.09
2019-05-30T03:30:57.348Z,493.50
2019-05-30T03:31:57.329Z,490.40
2019-05-30T03:33:16.969Z,479.78
2019-05-30T03:33:58.345Z,480.00
2019-05-30T03:34:57.294Z,483.28
2019-05-30T03:35:57.302Z,486.24
2019-05-30T03:36:57.261Z,489.86
2019-05-30T03:37:57.274Z,493.21
2019-05-30T03:38:57.276Z,492.94
2019-05-30T03:39:57.259Z,494.62
2019-05-30T03:40:57.222Z,496.11
2019-05-30T03:41:57.216Z,495.68
2019-05-30T03:42:57.223Z,494.89
2019-05-30T03:43:57.209Z,489.20
2019-05-30T03:44:57.186Z,492.98
2019-05-30T03:45:57.172Z,491.44
2019-05-30T03:46:57.157Z,492.31
2019-05-30T03:47:57.152Z,493.42
2019-05-30T03:48:57.151Z,496.04
2019-05-30T03:49:57.136Z,494.69
2019-05-30T03:50:57.119Z,495.58
2019-05-30T03:51:57.116Z,494.03
2019-05-30T03:52:57.096Z,493.68
2019-05-30T03:53:57.092Z,492.46
2019-05-30T03:54:57.066Z,494.00
2019-05-30T03:55:57.054Z,492.38
2019-05-30T03:56:57.081Z,494.34
2019-05-30T03:57:57.034Z,494.48
2019-05-30T03:58:57.047Z,492.64
2019-05-30T03:59:57.008Z,492.79
2019-05-30T04:00:56.997Z,495.24
2019-05-30T04:01:56.994Z,495.23
2019-05-30T04:02:59.018Z,496.60
2019-05-30T04:03:57.006Z,495.22
2019-05-30T04:04:56.956Z,494.34
2019-05-30T04:05:56.950Z,495.96
2019-05-30T04:06:56.988Z,497.37
2019-05-30T04:07:56.938Z,495.64
2019-05-30T04:08:56.921Z,492.85
2019-05-30T04:09:56.919Z,494.42
2019-05-30T04:10:56.902Z,493.96
2019-05-30T04:11:56.892Z,494.62
2019-05-30T04:12:56.877Z,497.13
2019-05-30T04:13:56.873Z,494.07
2019-05-30T04:14:57.430Z,495.58
2019-05-30T04:15:56.838Z,495.85
2019-05-30T04:16:56.889Z,494.56
2019-05-30T04:17:56.855Z,495.45
2019-05-30T04:18:56.801Z,494.71
2019-05-30T04:19:56.850Z,494.72
2019-05-30T04:20:56.779Z,495.51
2019-05-30T04:21:56.770Z,495.80
2019-05-30T04:22:56.779Z,495.59
2019-05-30T04:23:56.748Z,496.02
2019-05-30T04:24:56.754Z,493.11
2019-05-30T04:26:00.353Z,496.06
2019-05-30T04:26:56.702Z,494.86
2019-05-30T04:27:56.706Z,498.40
2019-05-30T04:28:56.689Z,494.37
2019-05-30T04:29:56.698Z,496.59
2019-05-30T04:30:56.664Z,497.16
2019-05-30T04:31:56.664Z,494.91
2019-05-30T04:33:16.050Z,495.40
2019-05-30T04:33:57.627Z,494.74
2019-05-30T04:34:56.766Z,495.29
2019-05-30T04:35:56.615Z,496.92
2019-05-30T04:36:56.603Z,497.81
2019-05-30T04:37:56.595Z,495.52
2019-05-30T04:38:56.585Z,496.08
2019-05-30T04:39:56.595Z,499.07
2019-05-30T04:40:56.562Z,496.06
2019-05-30T04:41:56.562Z,495.01
2019-05-30T04:42:56.541Z,496.40
2019-05-30T04:43:56.521Z,494.35
2019-05-30T04:44:56.522Z,497.29
2019-05-30T04:45:56.503Z,495.85
2019-05-30T04:46:56.487Z,496.29
2019-05-30T04:47:56.481Z,495.05
2019-05-30T04:48:56.494Z,496.91
2019-05-30T04:49:56.500Z,494.60
2019-05-30T04:50:56.443Z,495.80
2019-05-30T04:51:56.433Z,494.78
2019-05-30T04:52:56.437Z,495.35
2019-05-30T04:53:56.420Z,496.53
2019-05-30T04:54:57.314Z,495.98
2019-05-30T04:55:56.405Z,497.15
2019-05-30T04:56:56.388Z,494.98
2019-05-30T04:57:56.381Z,496.34
2019-05-30T04:58:56.364Z,496.18
2019-05-30T04:59:56.383Z,497.60
2019-05-30T05:00:56.349Z,496.39
2019-05-30T05:01:56.380Z,498.27
2019-05-30T05:02:56.315Z,496.59
2019-05-30T05:03:56.285Z,495.73
2019-05-30T05:04:56.306Z,497.62
2019-05-30T05:05:56.292Z,499.28
2019-05-30T05:06:56.266Z,497.65
2019-05-30T05:07:56.250Z,497.88
2019-05-30T05:08:56.261Z,497.75
2019-05-30T05:09:56.281Z,497.95
2019-05-30T05:10:56.218Z,498.34
2019-05-30T05:11:56.210Z,498.01
2019-05-30T05:12:56.206Z,498.20
2019-05-30T05:13:56.233Z,495.36
2019-05-30T05:14:56.211Z,498.09
2019-05-30T05:15:56.841Z,497.38
2019-05-30T05:16:56.162Z,497.96
2019-05-30T05:17:56.147Z,498.96
2019-05-30T05:18:56.152Z,495.47
2019-05-30T05:19:56.126Z,497.48
2019-05-30T05:20:56.142Z,496.10
2019-05-30T05:21:56.100Z,496.21
2019-05-30T05:22:56.089Z,497.70
2019-05-30T05:23:56.070Z,498.69
2019-05-30T05:24:56.063Z,497.83
2019-05-30T05:26:00.898Z,496.43
2019-05-30T05:26:57.046Z,497.72
2019-05-30T05:27:56.037Z,497.62
2019-05-30T05:28:56.028Z,497.81
2019-05-30T05:29:56.014Z,500.75
2019-05-30T05:30:56.001Z,500.04
2019-05-30T05:31:55.992Z,498.50
2019-05-30T05:32:55.979Z,499.83
2019-05-30T05:33:57.338Z,499.53
2019-05-30T05:34:55.954Z,497.36
2019-05-30T05:35:55.968Z,498.66
2019-05-30T05:36:55.934Z,499.27
2019-05-30T05:37:55.964Z,498.11
2019-05-30T05:38:55.911Z,499.02
2019-05-30T05:39:55.886Z,499.85
2019-05-30T05:40:55.908Z,497.38
2019-05-30T05:41:55.876Z,498.11
2019-05-30T05:42:55.872Z,496.68
2019-05-30T05:43:55.848Z,499.41
2019-05-30T05:44:55.844Z,496.69
2019-05-30T05:45:55.860Z,497.90
2019-05-30T05:46:55.812Z,498.21
2019-05-30T05:47:55.806Z,497.85
2019-05-30T05:48:55.796Z,496.71
2019-05-30T05:49:55.869Z,497.66
2019-05-30T05:50:55.818Z,497.42
2019-05-30T05:51:55.766Z,498.91
2019-05-30T05:52:55.749Z,496.66
2019-05-30T05:53:55.742Z,497.97
2019-05-30T05:54:55.737Z,496.37
2019-05-30T05:55:55.745Z,498.05
2019-05-30T05:56:55.714Z,497.56
2019-05-30T05:57:55.702Z,497.45
2019-05-30T05:58:55.688Z,497.04
2019-05-30T05:59:55.675Z,496.14
2019-05-30T06:00:55.689Z,497.64
2019-05-30T06:01:55.652Z,497.03
2019-05-30T06:02:55.643Z,497.69
2019-05-30T06:04:11.672Z,497.65
2019-05-30T06:04:56.630Z,499.23
2019-05-30T06:05:55.700Z,497.55
2019-05-30T06:06:55.606Z,496.59
2019-05-30T06:07:55.585Z,497.08
2019-05-30T06:08:55.578Z,497.44
2019-05-30T06:09:55.571Z,496.97
2019-05-30T06:10:55.584Z,497.29
2019-05-30T06:11:55.547Z,498.64
2019-05-30T06:12:55.528Z,497.29
2019-05-30T06:13:55.523Z,496.67
2019-05-30T06:14:55.514Z,493.31
2019-05-30T06:15:55.520Z,495.58
2019-05-30T06:16:55.965Z,496.70
2019-05-30T06:17:56.358Z,495.57
2019-05-30T06:18:55.503Z,498.56
2019-05-30T06:19:55.451Z,497.57
2019-05-30T06:20:55.463Z,499.80
2019-05-30T06:21:55.437Z,500.37
2019-05-30T06:22:55.417Z,499.72
2019-05-30T06:23:55.414Z,497.65
2019-05-30T06:24:55.402Z,499.65
2019-05-30T06:25:55.551Z,498.18
2019-05-30T06:26:55.505Z,498.94
2019-05-30T06:27:55.536Z,497.80
2019-05-30T06:28:55.384Z,501.47
2019-05-30T06:29:55.376Z,501.31
2019-05-30T06:30:58.729Z,500.85
2019-05-30T06:31:55.372Z,502.84
2019-05-30T06:32:55.317Z,499.68
2019-05-30T06:33:55.298Z,501.39
2019-05-30T06:34:55.277Z,502.75
2019-05-30T06:35:55.273Z,499.76
2019-05-30T06:36:55.306Z,500.68
2019-05-30T06:37:55.243Z,500.83
2019-05-30T06:38:55.261Z,502.13
2019-05-30T06:39:55.254Z,500.48
2019-05-30T06:40:55.227Z,500.50
2019-05-30T06:41:55.225Z,499.63
2019-05-30T06:42:55.189Z,501.72
2019-05-30T06:43:55.180Z,501.10
2019-05-30T06:44:55.177Z,499.99
2019-05-30T06:45:55.181Z,498.11
2019-05-30T06:46:55.244Z,500.19
2019-05-30T06:47:55.132Z,500.27
2019-05-30T06:48:55.133Z,497.52
2019-05-30T06:49:55.124Z,497.36
2019-05-30T06:50:55.104Z,498.84
2019-05-30T06:51:55.124Z,500.48
2019-05-30T06:52:55.093Z,500.49
2019-05-30T06:53:55.101Z,500.21
2019-05-30T06:54:55.078Z,499.75
2019-05-30T06:55:55.054Z,501.52
2019-05-30T06:56:55.054Z,497.85
2019-05-30T06:57:55.036Z,500.38
2019-05-30T06:58:55.024Z,500.73
2019-05-30T06:59:55.009Z,500.97
2019-05-30T07:00:54.995Z,500.07
2019-05-30T07:01:55.847Z,500.29
2019-05-30T07:02:55.042Z,501.35
2019-05-30T07:03:55.084Z,498.52
2019-05-30T07:04:55.576Z,498.41
2019-05-30T07:05:55.468Z,499.20
2019-05-30T07:06:55.203Z,499.91
2019-05-30T07:07:54.960Z,498.65
2019-05-30T07:08:54.911Z,498.43
2019-05-30T07:09:54.908Z,498.19
2019-05-30T07:10:54.884Z,496.37
2019-05-30T07:11:54.890Z,497.84
2019-05-30T07:12:54.878Z,500.03
2019-05-30T07:13:54.852Z,500.94
2019-05-30T07:14:54.952Z,499.40
2019-05-30T07:15:54.841Z,500.57
2019-05-30T07:16:54.856Z,500.85
2019-05-30T07:17:54.854Z,498.43
2019-05-30T07:18:54.840Z,503.81
2019-05-30T07:19:54.821Z,507.22
2019-05-30T07:20:54.794Z,507.59
2019-05-30T07:21:54.789Z,504.63
2019-05-30T07:22:54.783Z,504.07
2019-05-30T07:23:54.741Z,509.26
2019-05-30T07:24:54.736Z,504.45
2019-05-30T07:25:54.725Z,502.74
2019-05-30T07:26:54.722Z,504.93
2019-05-30T07:27:54.698Z,502.82
2019-05-30T07:28:54.691Z,501.57
2019-05-30T07:29:54.688Z,503.18
2019-05-30T07:30:54.654Z,505.17
2019-05-30T07:31:54.704Z,501.70
2019-05-30T07:32:54.661Z,502.42
2019-05-30T07:33:54.640Z,502.48
2019-05-30T07:35:06.121Z,514.27
2019-05-30T07:35:55.610Z,501.49
2019-05-30T07:36:54.617Z,504.42
2019-05-30T07:37:54.598Z,507.13
2019-05-30T07:38:54.578Z,505.39
2019-05-30T07:39:54.588Z,503.98
2019-05-30T07:40:54.548Z,502.36
2019-05-30T07:42:05.600Z,501.45
2019-05-30T07:42:55.535Z,504.66
2019-05-30T07:43:55.431Z,501.52
2019-05-30T07:44:54.512Z,500.07
2019-05-30T07:45:58.172Z,503.15
2019-05-30T07:46:54.517Z,506.83
2019-05-30T07:47:54.473Z,507.21
2019-05-30T07:48:54.464Z,503.79
2019-05-30T07:49:54.457Z,501.70
2019-05-30T07:50:54.441Z,506.51
2019-05-30T07:51:54.464Z,504.37
2019-05-30T07:52:54.428Z,503.74
2019-05-30T07:53:54.407Z,506.34
2019-05-30T07:54:54.408Z,503.64
2019-05-30T07:55:54.394Z,508.47
2019-05-30T07:56:54.427Z,500.59
2019-05-30T07:57:54.441Z,502.61
2019-05-30T07:58:54.357Z,507.67
2019-05-30T07:59:54.348Z,507.16
2019-05-30T08:00:54.330Z,501.24
2019-05-30T08:01:54.369Z,505.97
2019-05-30T08:02:54.314Z,503.57
2019-05-30T08:03:54.303Z,503.78
2019-05-30T08:04:54.286Z,507.54
2019-05-30T08:05:54.277Z,503.66
2019-05-30T08:06:54.285Z,503.61
2019-05-30T08:07:54.257Z,502.81
2019-05-30T08:08:54.246Z,508.13
2019-05-30T08:09:54.229Z,506.10
2019-05-30T08:11:08.259Z,509.17
2019-05-30T08:11:55.228Z,501.72
2019-05-30T08:12:54.190Z,503.24
2019-05-30T08:13:54.179Z,506.46
2019-05-30T08:14:54.173Z,508.07
2019-05-30T08:15:54.182Z,504.33
2019-05-30T08:16:54.174Z,504.58
2019-05-30T08:17:54.146Z,501.31
2019-05-30T08:18:54.134Z,504.49
2019-05-30T08:19:54.117Z,503.99
2019-05-30T08:20:54.108Z,502.45
2019-05-30T08:21:54.119Z,507.68
2019-05-30T08:22:54.091Z,507.00
2019-05-30T08:23:54.076Z,505.41
2019-05-30T08:24:54.062Z,505.54
2019-05-30T08:25:54.059Z,506.23
2019-05-30T08:26:54.048Z,505.04
2019-05-30T08:27:54.082Z,507.79
2019-05-30T08:28:54.015Z,504.73
2019-05-30T08:29:54.006Z,509.53
2019-05-30T08:30:56.808Z,505.19
2019-05-30T08:31:54.003Z,507.12
2019-05-30T08:32:53.975Z,501.69
2019-05-30T08:33:53.964Z,504.86
2019-05-30T08:34:53.951Z,504.45
2019-05-30T08:35:53.943Z,507.34
2019-05-30T08:36:53.945Z,507.00
2019-05-30T08:37:53.925Z,505.01
2019-05-30T08:38:53.906Z,502.03
2019-05-30T08:39:53.896Z,504.58
2019-05-30T08:40:53.892Z,503.58
2019-05-30T08:41:53.898Z,505.41
2019-05-30T08:42:53.854Z,503.16
2019-05-30T08:43:53.865Z,501.63
2019-05-30T08:44:53.842Z,501.31
2019-05-30T08:45:53.840Z,502.70
2019-05-30T08:46:53.842Z,500.37
2019-05-30T08:47:53.808Z,508.08
2019-05-30T08:48:53.802Z,504.29
2019-05-30T08:49:53.808Z,501.76
2019-05-30T08:50:53.786Z,503.39
2019-05-30T08:51:53.800Z,503.69
2019-05-30T08:52:53.763Z,505.71
2019-05-30T08:53:53.745Z,500.15
2019-05-30T08:54:53.724Z,498.87
2019-05-30T08:55:53.715Z,504.21
2019-05-30T08:56:53.739Z,510.47
2019-05-30T08:57:53.703Z,507.56
2019-05-30T08:58:53.688Z,505.11
2019-05-30T08:59:54.384Z,505.44
2019-05-30T09:00:53.666Z,505.47
2019-05-30T09:01:53.681Z,504.77
2019-05-30T09:02:53.649Z,504.85
2019-05-30T09:03:53.631Z,506.07
2019-05-30T09:04:53.627Z,501.83
2019-05-30T09:06:03.541Z,499.73
2019-05-30T09:06:54.620Z,517.46
2019-05-30T09:07:53.587Z,504.21
2019-05-30T09:08:53.571Z,507.74
2019-05-30T09:09:53.558Z,502.31
2019-05-30T09:10:53.555Z,502.25
2019-05-30T09:11:53.568Z,501.78
2019-05-30T09:12:53.564Z,504.85
2019-05-30T09:13:53.528Z,505.56
2019-05-30T09:14:53.502Z,500.92
2019-05-30T09:15:53.505Z,504.17
2019-05-30T09:16:53.489Z,507.09
2019-05-30T09:17:53.500Z,505.71
2019-05-30T09:18:53.459Z,507.02
2019-05-30T09:19:53.461Z,500.90
2019-05-30T09:20:53.443Z,502.32
2019-05-30T09:21:53.447Z,499.17
2019-05-30T09:22:53.434Z,502.38
2019-05-30T09:23:56.892Z,501.11
2019-05-30T09:24:54.402Z,503.45
2019-05-30T09:25:53.390Z,499.73
2019-05-30T09:26:53.381Z,512.57
2019-05-30T09:27:53.414Z,503.17
2019-05-30T09:28:53.348Z,498.51
2019-05-30T09:29:53.335Z,503.77
2019-05-30T09:30:53.326Z,502.68
2019-05-30T09:31:53.330Z,504.00
2019-05-30T09:32:53.363Z,505.27
2019-05-30T09:33:53.297Z,501.79
2019-05-30T09:34:53.349Z,504.44
2019-05-30T09:35:53.275Z,500.89
2019-05-30T09:36:53.271Z,504.71
2019-05-30T09:37:53.266Z,500.02
2019-05-30T09:38:53.259Z,498.58
2019-05-30T09:39:53.230Z,505.41
2019-05-30T09:40:53.214Z,503.82
2019-05-30T09:41:53.207Z,503.50
2019-05-30T09:42:53.215Z,500.68
2019-05-30T09:43:53.191Z,500.85
2019-05-30T09:44:53.280Z,501.65
2019-05-30T09:45:53.186Z,501.88
2019-05-30T09:46:53.151Z,497.98
2019-05-30T09:47:53.157Z,497.48
2019-05-30T09:48:53.126Z,504.80
2019-05-30T09:49:53.127Z,505.09
2019-05-30T09:50:53.110Z,504.53
2019-05-30T09:51:53.092Z,500.35
2019-05-30T09:52:53.103Z,505.07
2019-05-30T09:53:53.091Z,504.56
2019-05-30T09:54:53.078Z,500.98
2019-05-30T09:55:53.141Z,507.97
2019-05-30T09:56:54.120Z,507.59
2019-05-30T09:57:53.498Z,508.18
2019-05-30T09:58:53.022Z,504.96
2019-05-30T09:59:53.006Z,509.29
2019-05-30T10:00:53.000Z,505.05
2019-05-30T10:01:52.996Z,503.10
2019-05-30T10:02:52.996Z,501.39
2019-05-30T10:03:52.970Z,505.52
2019-05-30T10:04:52.954Z,504.61
2019-05-30T10:05:52.949Z,506.26
2019-05-30T10:06:52.929Z,504.39
2019-05-30T10:07:53.082Z,504.65
2019-05-30T10:08:53.110Z,502.88
2019-05-30T10:09:53.135Z,501.72
2019-05-30T10:10:53.480Z,498.46
2019-05-30T10:11:53.498Z,504.10
2019-05-30T10:12:52.895Z,510.61
2019-05-30T10:13:52.986Z,507.10
2019-05-30T10:14:53.011Z,510.53
2019-05-30T10:15:52.827Z,511.21
2019-05-30T10:16:55.999Z,503.77
2019-05-30T10:17:54.531Z,506.89
2019-05-30T10:18:52.948Z,506.59
2019-05-30T10:19:53.070Z,503.92
2019-05-30T10:20:53.665Z,503.01
2019-05-30T10:21:53.259Z,505.30
2019-05-30T10:22:53.804Z,508.76
2019-05-30T10:23:53.733Z,508.57
2019-05-30T10:24:53.346Z,499.27
2019-05-30T10:25:53.368Z,500.35
2019-05-30T10:26:53.173Z,501.38
2019-05-30T10:27:54.639Z,501.22
2019-05-30T10:28:53.344Z,507.68
2019-05-30T10:29:53.333Z,516.67
2019-05-30T10:30:57.352Z,507.15
2019-05-30T10:31:53.655Z,509.73
2019-05-30T10:32:53.792Z,497.92
2019-05-30T10:33:52.995Z,505.52
2019-05-30T10:34:53.842Z,511.07
2019-05-30T10:35:53.485Z,506.00
2019-05-30T10:36:53.699Z,505.21
2019-05-30T10:37:52.908Z,516.94
2019-05-30T10:38:53.812Z,505.83
2019-05-30T10:39:57.227Z,502.89
2019-05-30T10:40:54.083Z,511.66
2019-05-30T10:41:53.127Z,508.64
2019-05-30T10:42:53.277Z,508.21
2019-05-30T10:43:53.140Z,501.93
2019-05-30T10:44:52.908Z,503.33
2019-05-30T10:45:53.391Z,503.80
2019-05-30T10:46:52.927Z,513.81
2019-05-30T10:47:53.694Z,509.13
2019-05-30T10:48:52.778Z,506.36
2019-05-30T10:49:53.540Z,504.92
2019-05-30T10:50:52.454Z,504.56
2019-05-30T10:51:57.143Z,506.93
2019-05-30T10:52:53.667Z,499.58
2019-05-30T10:53:53.935Z,501.34
2019-05-30T10:54:53.442Z,504.23
2019-05-30T10:55:53.621Z,497.00
2019-05-30T10:56:53.552Z,503.98
2019-05-30T10:57:55.742Z,500.69
2019-05-30T10:58:53.370Z,506.17
2019-05-30T10:59:52.601Z,521.09
2019-05-30T11:00:53.878Z,503.09
2019-05-30T11:01:53.037Z,504.38
2019-05-30T11:02:52.886Z,504.33
2019-05-30T11:03:52.656Z,509.80
2019-05-30T11:04:53.122Z,497.85
2019-05-30T11:05:52.899Z,496.83
2019-05-30T11:07:09.915Z,507.27
2019-05-30T11:08:02.034Z,501.18
2019-05-30T11:08:53.303Z,518.20
2019-05-30T11:09:52.799Z,511.30
2019-05-30T11:10:52.717Z,505.06
2019-05-30T11:11:52.828Z,506.54
2019-05-30T11:12:57.486Z,511.59
2019-05-30T11:13:53.328Z,505.49
2019-05-30T11:14:53.737Z,506.78
2019-05-30T11:15:53.501Z,501.23
2019-05-30T11:16:53.657Z,501.13
2019-05-30T11:17:53.333Z,504.66
2019-05-30T11:18:53.135Z,504.49
2019-05-30T11:19:52.139Z,507.72
2019-05-30T11:20:52.384Z,505.32
2019-05-30T11:21:52.794Z,506.70
2019-05-30T11:22:53.345Z,500.31
2019-05-30T11:23:52.610Z,506.49
2019-05-30T11:24:52.746Z,502.06
2019-05-30T11:25:52.596Z,502.23
2019-05-30T11:26:52.596Z,506.88
2019-05-30T11:27:52.694Z,500.05
2019-05-30T11:28:52.600Z,500.73
2019-05-30T11:29:52.953Z,500.77
2019-05-30T11:30:52.740Z,508.25
2019-05-30T11:31:52.899Z,499.07
2019-05-30T11:32:53.077Z,508.78
2019-05-30T11:33:52.879Z,508.21
2019-05-30T11:34:53.029Z,503.35
2019-05-30T11:35:52.999Z,509.40
2019-05-30T11:36:53.010Z,500.65
2019-05-30T11:37:52.993Z,499.86
2019-05-30T11:38:52.457Z,502.66
2019-05-30T11:39:53.164Z,503.60
2019-05-30T11:40:51.919Z,503.53
2019-05-30T11:41:51.873Z,510.88
2019-05-30T11:42:51.865Z,506.96
2019-05-30T11:43:51.853Z,514.06
2019-05-30T11:44:51.849Z,507.24
2019-05-30T11:45:51.831Z,503.01
2019-05-30T11:46:51.829Z,507.10
2019-05-30T11:47:51.826Z,513.18
2019-05-30T11:48:51.803Z,516.67
2019-05-30T11:49:51.807Z,507.11
2019-05-30T11:50:52.071Z,509.29
2019-05-30T11:51:51.769Z,507.56
2019-05-30T11:52:51.820Z,501.13
2019-05-30T11:53:51.832Z,500.25
2019-05-30T11:54:52.069Z,503.87
2019-05-30T11:55:52.317Z,501.91
2019-05-30T11:56:52.046Z,505.95
2019-05-30T11:57:52.069Z,511.21
2019-05-30T11:58:52.025Z,505.87
2019-05-30T11:59:52.168Z,505.61
2019-05-30T12:00:53.065Z,500.28
2019-05-30T12:01:52.905Z,509.33
2019-05-30T12:02:52.172Z,503.69
2019-05-30T12:03:52.549Z,507.75
2019-05-30T12:04:52.552Z,497.85
2019-05-30T12:05:52.515Z,512.88
2019-05-30T12:06:53.021Z,510.93
2019-05-30T12:07:52.803Z,500.30
2019-05-30T12:08:52.686Z,505.91
2019-05-30T12:09:52.803Z,505.02
2019-05-30T12:10:52.973Z,500.05
2019-05-30T12:11:51.548Z,503.53
2019-05-30T12:12:51.535Z,497.18
2019-05-30T12:13:51.796Z,500.19
2019-05-30T12:14:51.545Z,504.30
2019-05-30T12:15:51.539Z,507.32
2019-05-30T12:16:51.497Z,508.07
2019-05-30T12:17:51.475Z,500.14
2019-05-30T12:18:51.496Z,509.51
2019-05-30T12:19:51.478Z,504.55
2019-05-30T12:20:52.028Z,502.53
2019-05-30T12:21:51.571Z,503.35
2019-05-30T12:22:51.749Z,498.94
2019-05-30T12:23:51.916Z,499.98
2019-05-30T12:24:51.737Z,506.90
2019-05-30T12:25:51.954Z,506.34
2019-05-30T12:26:51.859Z,505.82
2019-05-30T12:27:52.046Z,495.44